sensor_id;sensor_type;location;lat;lon;timestamp;P1;durP1;ratioP1;P2;durP2;ratioP2
54917;SDS011;40818;50.562;7.454;2022-09-09T05:36:01;4.43;;;0.40;;
54917;SDS011;40818;50.562;7.454;2022-09-09T05:41:08;8.00;;;0.45;;
54917;SDS011;40818;50.562;7.454;2022-09-09T05:46:16;3.95;;;0.30;;
54917;SDS011;40818;50.562;7.454;2022-09-09T05:56:33;3.60;;;0.30;;
54917;SDS011;40818;50.562;7.454;2022-09-09T06:01:37;8.98;;;0.30;;
54917;SDS011;40818;50.562;7.454;2022-09-09T06:06:45;4.30;;;0.40;;
54917;SDS011;40818;50.562;7.454;2022-09-09T06:11:54;1.98;;;0.30;;
54917;SDS011;40818;50.562;7.454;2022-09-09T06:16:58;4.95;;;0.30;;
54917;SDS011;40818;50.562;7.454;2022-09-09T06:22:04;4.10;;;0.40;;
54917;SDS011;40818;50.562;7.454;2022-09-09T06:27:13;13.85;;;0.40;;
54917;SDS011;40818;50.562;7.454;2022-09-09T06:32:17;3.38;;;0.40;;
54917;SDS011;40818;50.562;7.454;2022-09-09T06:37:20;2.05;;;0.20;;
54917;SDS011;40818;50.562;7.454;2022-09-09T06:42:27;4.90;;;0.40;;
54917;SDS011;40818;50.562;7.454;2022-09-09T06:47:54;6.28;;;0.30;;
54917;SDS011;40818;50.562;7.454;2022-09-09T06:52:58;3.60;;;0.30;;
54917;SDS011;40818;50.562;7.454;2022-09-09T06:58:07;3.22;;;0.30;;
54917;SDS011;40818;50.562;7.454;2022-09-09T07:03:11;5.85;;;0.30;;
54917;SDS011;40818;50.562;7.454;2022-09-09T07:08:15;2.88;;;0.20;;
54917;SDS011;40818;50.562;7.454;2022-09-09T07:13:23;8.27;;;0.30;;
54917;SDS011;40818;50.562;7.454;2022-09-09T07:18:29;3.08;;;0.20;;
54917;SDS011;40818;50.562;7.454;2022-09-09T07:23:34;3.83;;;0.30;;
54917;SDS011;40818;50.562;7.454;2022-09-09T07:28:41;4.28;;;0.25;;
54917;SDS011;40818;50.562;7.454;2022-09-09T07:33:45;6.38;;;0.43;;
54917;SDS011;40818;50.562;7.454;2022-09-09T07:38:51;6.53;;;0.40;;
54917;SDS011;40818;50.562;7.454;2022-09-09T07:44:03;4.50;;;0.30;;
54917;SDS011;40818;50.562;7.454;2022-09-09T07:54:13;3.45;;;0.30;;
54917;SDS011;40818;50.562;7.454;2022-09-09T07:59:23;4.07;;;0.25;;
54917;SDS011;40818;50.562;7.454;2022-09-09T08:04:30;4.13;;;0.40;;
54917;SDS011;40818;50.562;7.454;2022-09-09T08:09:35;4.97;;;0.40;;
54917;SDS011;40818;50.562;7.454;2022-09-09T08:14:47;7.18;;;0.30;;
54917;SDS011;40818;50.562;7.454;2022-09-09T08:19:51;5.18;;;0.20;;
54917;SDS011;40818;50.562;7.454;2022-09-09T08:24:58;5.07;;;0.25;;
54917;SDS011;40818;50.562;7.454;2022-09-09T08:30:05;8.15;;;0.30;;
54917;SDS011;40818;50.562;7.454;2022-09-09T08:35:09;1.27;;;0.20;;
54917;SDS011;40818;50.562;7.454;2022-09-09T08:40:17;2.55;;;0.20;;
54917;SDS011;40818;50.562;7.454;2022-09-09T08:45:29;4.03;;;0.30;;
54917;SDS011;40818;50.562;7.454;2022-09-09T08:50:40;3.05;;;0.30;;
54917;SDS011;40818;50.562;7.454;2022-09-09T08:55:51;2.53;;;0.20;;
54917;SDS011;40818;50.562;7.454;2022-09-09T09:07:13;5.65;;;0.20;;
54917;SDS011;40818;50.562;7.454;2022-09-09T09:12:28;3.00;;;0.20;;
54917;SDS011;40818;50.562;7.454;2022-09-09T09:17:43;4.63;;;0.20;;
54917;SDS011;40818;50.562;7.454;2022-09-09T09:22:50;1.65;;;0.20;;
54917;SDS011;40818;50.562;7.454;2022-09-09T09:27:57;2.15;;;0.10;;
54917;SDS011;40818;50.562;7.454;2022-09-09T09:33:12;3.10;;;0.20;;
54917;SDS011;40818;50.562;7.454;2022-09-09T09:38:22;2.50;;;0.20;;
54917;SDS011;40818;50.562;7.454;2022-09-09T09:43:31;3.72;;;0.20;;
54917;SDS011;40818;50.562;7.454;2022-09-09T09:48:42;4.25;;;0.20;;
54917;SDS011;40818;50.562;7.454;2022-09-09T09:53:46;2.38;;;0.20;;
54917;SDS011;40818;50.562;7.454;2022-09-09T09:58:53;4.95;;;0.20;;
54917;SDS011;40818;50.562;7.454;2022-09-09T10:04:16;2.65;;;0.30;;
54917;SDS011;40818;50.562;7.454;2022-09-09T10:09:25;3.78;;;0.20;;
54917;SDS011;40818;50.562;7.454;2022-09-09T10:14:33;2.38;;;0.20;;
54917;SDS011;40818;50.562;7.454;2022-09-09T10:19:49;3.75;;;0.20;;
54917;SDS011;40818;50.562;7.454;2022-09-09T10:25:14;2.53;;;0.17;;
54917;SDS011;40818;50.562;7.454;2022-09-09T10:30:26;11.65;;;0.20;;
54917;SDS011;40818;50.562;7.454;2022-09-09T10:35:40;1.77;;;0.20;;
54917;SDS011;40818;50.562;7.454;2022-09-09T10:41:09;1.50;;;0.10;;
54917;SDS011;40818;50.562;7.454;2022-09-09T10:46:20;1.63;;;0.20;;
54917;SDS011;40818;50.562;7.454;2022-09-09T10:51:36;3.08;;;0.20;;
54917;SDS011;40818;50.562;7.454;2022-09-09T10:56:50;5.85;;;0.20;;
54917;SDS011;40818;50.562;7.454;2022-09-09T11:01:57;7.22;;;0.28;;
54917;SDS011;40818;50.562;7.454;2022-09-09T11:07:10;4.15;;;0.20;;
54917;SDS011;40818;50.562;7.454;2022-09-09T11:17:23;1.45;;;0.10;;
54917;SDS011;40818;50.562;7.454;2022-09-09T11:22:33;3.40;;;0.25;;
54917;SDS011;40818;50.562;7.454;2022-09-09T11:27:42;2.42;;;0.10;;
54917;SDS011;40818;50.562;7.454;2022-09-09T11:32:56;5.35;;;0.20;;
54917;SDS011;40818;50.562;7.454;2022-09-09T11:38:24;4.45;;;0.20;;
54917;SDS011;40818;50.562;7.454;2022-09-09T11:43:30;2.38;;;0.20;;
54917;SDS011;40818;50.562;7.454;2022-09-09T11:48:36;2.70;;;0.10;;
54917;SDS011;40818;50.562;7.454;2022-09-09T11:53:52;2.80;;;0.25;;
54917;SDS011;40818;50.562;7.454;2022-09-09T11:59:02;3.55;;;0.20;;
54917;SDS011;40818;50.562;7.454;2022-09-09T12:04:17;2.25;;;0.20;;
54917;SDS011;40818;50.562;7.454;2022-09-09T12:09:37;6.75;;;0.20;;
54917;SDS011;40818;50.562;7.454;2022-09-09T12:14:55;1.60;;;0.20;;
54917;SDS011;40818;50.562;7.454;2022-09-09T12:20:02;1.55;;;0.20;;
54917;SDS011;40818;50.562;7.454;2022-09-09T12:25:23;5.68;;;0.20;;
54917;SDS011;40818;50.562;7.454;2022-09-09T12:30:34;2.20;;;0.10;;
54917;SDS011;40818;50.562;7.454;2022-09-09T12:35:45;1.85;;;0.17;;
54917;SDS011;40818;50.562;7.454;2022-09-09T12:40:57;2.95;;;0.10;;
54917;SDS011;40818;50.562;7.454;2022-09-09T12:46:02;1.83;;;0.10;;
54917;SDS011;40818;50.562;7.454;2022-09-09T12:51:16;2.72;;;0.20;;
54917;SDS011;40818;50.562;7.454;2022-09-09T12:56:27;1.85;;;0.10;;
54917;SDS011;40818;50.562;7.454;2022-09-09T13:01:36;1.08;;;0.10;;
54917;SDS011;40818;50.562;7.454;2022-09-09T13:06:39;2.55;;;0.15;;
54917;SDS011;40818;50.562;7.454;2022-09-09T13:11:46;1.55;;;0.10;;
54917;SDS011;40818;50.562;7.454;2022-09-09T13:16:54;1.17;;;0.10;;
54917;SDS011;40818;50.562;7.454;2022-09-09T13:21:59;3.22;;;0.25;;
54917;SDS011;40818;50.562;7.454;2022-09-09T13:27:19;2.40;;;0.20;;
54917;SDS011;40818;50.562;7.454;2022-09-09T13:32:29;1.63;;;0.10;;
54917;SDS011;40818;50.562;7.454;2022-09-09T13:37:34;4.40;;;0.20;;
54917;SDS011;40818;50.562;7.454;2022-09-09T13:42:43;1.25;;;0.20;;
54917;SDS011;40818;50.562;7.454;2022-09-09T13:47:48;0.80;;;0.10;;
54917;SDS011;40818;50.562;7.454;2022-09-09T13:52:53;3.38;;;0.20;;
54917;SDS011;40818;50.562;7.454;2022-09-09T13:58:01;3.90;;;0.20;;
54917;SDS011;40818;50.562;7.454;2022-09-09T14:03:05;2.40;;;0.20;;
54917;SDS011;40818;50.562;7.454;2022-09-09T14:08:09;2.35;;;0.20;;
54917;SDS011;40818;50.562;7.454;2022-09-09T14:13:27;1.73;;;0.10;;
54917;SDS011;40818;50.562;7.454;2022-09-09T14:18:31;2.33;;;0.20;;
54917;SDS011;40818;50.562;7.454;2022-09-09T14:23:34;1.60;;;0.10;;
54917;SDS011;40818;50.562;7.454;2022-09-09T14:28:41;1.80;;;0.10;;
54917;SDS011;40818;50.562;7.454;2022-09-09T14:33:45;1.45;;;0.13;;
54917;SDS011;40818;50.562;7.454;2022-09-09T14:38:48;3.13;;;0.10;;
54917;SDS011;40818;50.562;7.454;2022-09-09T14:43:54;0.88;;;0.10;;
54917;SDS011;40818;50.562;7.454;2022-09-09T14:48:58;0.80;;;0.05;;
54917;SDS011;40818;50.562;7.454;2022-09-09T14:54:02;6.90;;;0.00;;
54917;SDS011;40818;50.562;7.454;2022-09-09T14:59:08;0.10;;;0.00;;
54917;SDS011;40818;50.562;7.454;2022-09-09T15:04:13;0.55;;;0.10;;
54917;SDS011;40818;50.562;7.454;2022-09-09T15:09:17;0.55;;;0.10;;
54917;SDS011;40818;50.562;7.454;2022-09-09T15:14:23;1.10;;;0.00;;
54917;SDS011;40818;50.562;7.454;2022-09-09T15:19:26;0.35;;;0.00;;
54917;SDS011;40818;50.562;7.454;2022-09-09T15:24:29;0.20;;;0.00;;
54917;SDS011;40818;50.562;7.454;2022-09-09T15:29:36;0.75;;;0.00;;
54917;SDS011;40818;50.562;7.454;2022-09-09T15:34:39;4.80;;;0.10;;
54917;SDS011;40818;50.562;7.454;2022-09-09T15:39:43;1.70;;;0.10;;
54917;SDS011;40818;50.562;7.454;2022-09-09T15:44:49;1.05;;;0.10;;
54917;SDS011;40818;50.562;7.454;2022-09-09T15:49:53;1.52;;;0.20;;
54917;SDS011;40818;50.562;7.454;2022-09-09T15:54:56;1.67;;;0.10;;
54917;SDS011;40818;50.562;7.454;2022-09-09T16:00:06;3.47;;;0.17;;
54917;SDS011;40818;50.562;7.454;2022-09-09T16:05:14;2.15;;;0.10;;
54917;SDS011;40818;50.562;7.454;2022-09-09T16:10:21;1.65;;;0.10;;
54917;SDS011;40818;50.562;7.454;2022-09-09T16:15:27;6.18;;;0.10;;
54917;SDS011;40818;50.562;7.454;2022-09-09T16:20:30;4.50;;;0.10;;
54917;SDS011;40818;50.562;7.454;2022-09-09T16:25:33;1.15;;;0.10;;
54917;SDS011;40818;50.562;7.454;2022-09-09T16:30:40;2.67;;;0.20;;
54917;SDS011;40818;50.562;7.454;2022-09-09T16:35:44;2.35;;;0.20;;
54917;SDS011;40818;50.562;7.454;2022-09-09T16:40:47;1.95;;;0.20;;
54917;SDS011;40818;50.562;7.454;2022-09-09T16:45:53;4.88;;;0.10;;
54917;SDS011;40818;50.562;7.454;2022-09-09T16:51:00;1.95;;;0.10;;
54917;SDS011;40818;50.562;7.454;2022-09-09T16:56:05;3.20;;;0.10;;
54917;SDS011;40818;50.562;7.454;2022-09-09T17:01:11;0.75;;;0.10;;
54917;SDS011;40818;50.562;7.454;2022-09-09T17:06:15;1.52;;;0.10;;
54917;SDS011;40818;50.562;7.454;2022-09-09T17:11:19;1.92;;;0.10;;
54917;SDS011;40818;50.562;7.454;2022-09-09T17:16:27;1.85;;;0.20;;
54917;SDS011;40818;50.562;7.454;2022-09-09T17:21:32;1.45;;;0.20;;
54917;SDS011;40818;50.562;7.454;2022-09-09T17:26:36;3.28;;;0.10;;
54917;SDS011;40818;50.562;7.454;2022-09-09T17:31:42;3.20;;;0.20;;
54917;SDS011;40818;50.562;7.454;2022-09-09T17:36:46;4.35;;;0.20;;
54917;SDS011;40818;50.562;7.454;2022-09-09T17:41:50;3.10;;;0.20;;
54917;SDS011;40818;50.562;7.454;2022-09-09T17:46:57;2.58;;;0.10;;
54917;SDS011;40818;50.562;7.454;2022-09-09T17:52:01;0.98;;;0.20;;
54917;SDS011;40818;50.562;7.454;2022-09-09T17:57:05;2.22;;;0.10;;
54917;SDS011;40818;50.562;7.454;2022-09-09T18:02:11;0.95;;;0.20;;
54917;SDS011;40818;50.562;7.454;2022-09-09T18:07:15;0.57;;;0.15;;
54917;SDS011;40818;50.562;7.454;2022-09-09T18:12:19;1.60;;;0.17;;
54917;SDS011;40818;50.562;7.454;2022-09-09T18:17:25;1.92;;;0.10;;
54917;SDS011;40818;50.562;7.454;2022-09-09T18:22:29;1.48;;;0.20;;
54917;SDS011;40818;50.562;7.454;2022-09-09T18:27:33;0.63;;;0.10;;
54917;SDS011;40818;50.562;7.454;2022-09-09T18:32:39;1.35;;;0.10;;
54917;SDS011;40818;50.562;7.454;2022-09-09T18:37:43;0.70;;;0.10;;
54917;SDS011;40818;50.562;7.454;2022-09-09T18:42:48;2.70;;;0.20;;
54917;SDS011;40818;50.562;7.454;2022-09-09T18:47:54;2.50;;;0.10;;
54917;SDS011;40818;50.562;7.454;2022-09-09T18:52:58;3.40;;;0.20;;
54917;SDS011;40818;50.562;7.454;2022-09-09T18:58:01;0.88;;;0.20;;
54917;SDS011;40818;50.562;7.454;2022-09-09T19:03:08;2.90;;;0.20;;
54917;SDS011;40818;50.562;7.454;2022-09-09T19:08:11;1.88;;;0.17;;
54917;SDS011;40818;50.562;7.454;2022-09-09T19:13:15;1.98;;;0.20;;
54917;SDS011;40818;50.562;7.454;2022-09-09T19:18:21;4.63;;;0.20;;
54917;SDS011;40818;50.562;7.454;2022-09-09T19:23:24;2.85;;;0.20;;
54917;SDS011;40818;50.562;7.454;2022-09-09T19:28:30;0.90;;;0.20;;
54917;SDS011;40818;50.562;7.454;2022-09-09T19:33:37;1.00;;;0.30;;
54917;SDS011;40818;50.562;7.454;2022-09-09T19:38:42;1.60;;;0.25;;
54917;SDS011;40818;50.562;7.454;2022-09-09T19:43:46;1.63;;;0.30;;
54917;SDS011;40818;50.562;7.454;2022-09-09T19:48:52;2.30;;;0.30;;
54917;SDS011;40818;50.562;7.454;2022-09-09T19:53:56;2.03;;;0.30;;
54917;SDS011;40818;50.562;7.454;2022-09-09T19:59:02;3.63;;;0.40;;
54917;SDS011;40818;50.562;7.454;2022-09-09T20:04:09;1.27;;;0.30;;
54917;SDS011;40818;50.562;7.454;2022-09-09T20:09:13;1.55;;;0.30;;
54917;SDS011;40818;50.562;7.454;2022-09-09T20:14:19;2.25;;;0.30;;
54917;SDS011;40818;50.562;7.454;2022-09-09T20:19:25;2.95;;;0.30;;
54917;SDS011;40818;50.562;7.454;2022-09-09T20:24:28;3.10;;;0.20;;
54917;SDS011;40818;50.562;7.454;2022-09-09T20:29:32;2.33;;;0.20;;
54917;SDS011;40818;50.562;7.454;2022-09-09T20:34:38;2.65;;;0.30;;
54917;SDS011;40818;50.562;7.454;2022-09-09T20:39:41;2.38;;;0.30;;
54917;SDS011;40818;50.562;7.454;2022-09-09T20:44:45;1.65;;;0.20;;
54917;SDS011;40818;50.562;7.454;2022-09-09T20:49:51;0.82;;;0.20;;
54917;SDS011;40818;50.562;7.454;2022-09-09T20:54:55;1.35;;;0.20;;
54917;SDS011;40818;50.562;7.454;2022-09-09T20:59:58;0.65;;;0.20;;
54917;SDS011;40818;50.562;7.454;2022-09-09T21:05:05;2.58;;;0.30;;
54917;SDS011;40818;50.562;7.454;2022-09-09T21:10:10;2.22;;;0.20;;
54917;SDS011;40818;50.562;7.454;2022-09-09T21:15:14;2.75;;;0.20;;
54917;SDS011;40818;50.562;7.454;2022-09-09T21:20:20;1.17;;;0.20;;
54917;SDS011;40818;50.562;7.454;2022-09-09T21:25:23;2.17;;;0.25;;
54917;SDS011;40818;50.562;7.454;2022-09-09T21:30:27;2.70;;;0.30;;
54917;SDS011;40818;50.562;7.454;2022-09-09T21:35:35;1.40;;;0.28;;
54917;SDS011;40818;50.562;7.454;2022-09-09T21:40:40;1.55;;;0.30;;
54917;SDS011;40818;50.562;7.454;2022-09-09T21:45:44;1.50;;;0.30;;
54917;SDS011;40818;50.562;7.454;2022-09-09T21:50:52;1.25;;;0.20;;
54917;SDS011;40818;50.562;7.454;2022-09-09T21:55:59;2.05;;;0.60;;
54917;SDS011;40818;50.562;7.454;2022-09-09T22:01:07;8.02;;;0.28;;
54917;SDS011;40818;50.562;7.454;2022-09-09T22:06:15;12.13;;;0.40;;
54917;SDS011;40818;50.562;7.454;2022-09-09T22:11:20;1.95;;;0.17;;
54917;SDS011;40818;50.562;7.454;2022-09-09T22:16:24;2.78;;;0.20;;
54917;SDS011;40818;50.562;7.454;2022-09-09T22:21:30;0.95;;;0.20;;
